sensor_id;sensor_type;location;lat;lon;timestamp;P1;durP1;ratioP1;P2;durP2;ratioP2
65825;SDS011;52586;-43.152;172.732;2023-05-29T00:00:04;2.55;;;1.35;;
65825;SDS011;52586;-43.152;172.732;2023-05-29T00:02:35;2.00;;;1.38;;
65825;SDS011;52586;-43.152;172.732;2023-05-29T00:05:06;1.88;;;1.10;;
65825;SDS011;52586;-43.152;172.732;2023-05-29T00:07:38;1.33;;;1.13;;
65825;SDS011;52586;-43.152;172.732;2023-05-29T00:10:11;3.47;;;1.42;;
65825;SDS011;52586;-43.152;172.732;2023-05-29T00:12:41;1.48;;;1.25;;
65825;SDS011;52586;-43.152;172.732;2023-05-29T00:15:12;1.33;;;1.17;;
65825;SDS011;52586;-43.152;172.732;2023-05-29T00:17:43;1.20;;;1.10;;
65825;SDS011;52586;-43.152;172.732;2023-05-29T00:20:13;1.63;;;0.90;;
65825;SDS011;52586;-43.152;172.732;2023-05-29T00:22:44;1.75;;;1.30;;
65825;SDS011;52586;-43.152;172.732;2023-05-29T00:25:17;2.50;;;1.40;;
65825;SDS011;52586;-43.152;172.732;2023-05-29T00:27:48;1.60;;;1.30;;
65825;SDS011;52586;-43.152;172.732;2023-05-29T00:30:19;1.58;;;1.17;;
65825;SDS011;52586;-43.152;172.732;2023-05-29T00:32:49;3.25;;;1.30;;
65825;SDS011;52586;-43.152;172.732;2023-05-29T00:35:20;2.85;;;1.40;;
65825;SDS011;52586;-43.152;172.732;2023-05-29T00:37:51;3.00;;;1.60;;
65825;SDS011;52586;-43.152;172.732;2023-05-29T00:40:23;3.10;;;1.30;;
65825;SDS011;52586;-43.152;172.732;2023-05-29T00:42:54;1.88;;;1.23;;
65825;SDS011;52586;-43.152;172.732;2023-05-29T00:45:25;2.40;;;1.50;;
65825;SDS011;52586;-43.152;172.732;2023-05-29T00:47:56;1.77;;;1.30;;
65825;SDS011;52586;-43.152;172.732;2023-05-29T00:50:27;2.70;;;1.33;;
65825;SDS011;52586;-43.152;172.732;2023-05-29T00:52:58;1.83;;;1.33;;
65825;SDS011;52586;-43.152;172.732;2023-05-29T00:55:32;2.08;;;1.17;;
65825;SDS011;52586;-43.152;172.732;2023-05-29T00:58:03;3.20;;;1.42;;
65825;SDS011;52586;-43.152;172.732;2023-05-29T01:00:35;2.05;;;1.40;;
65825;SDS011;52586;-43.152;172.732;2023-05-29T01:03:06;2.47;;;1.45;;
65825;SDS011;52586;-43.152;172.732;2023-05-29T01:05:40;2.88;;;1.58;;
65825;SDS011;52586;-43.152;172.732;2023-05-29T01:08:12;2.65;;;1.38;;
65825;SDS011;52586;-43.152;172.732;2023-05-29T01:10:44;3.58;;;1.67;;
65825;SDS011;52586;-43.152;172.732;2023-05-29T01:13:17;2.53;;;1.63;;
65825;SDS011;52586;-43.152;172.732;2023-05-29T01:15:51;2.35;;;1.42;;
65825;SDS011;52586;-43.152;172.732;2023-05-29T01:18:30;4.53;;;1.77;;
65825;SDS011;52586;-43.152;172.732;2023-05-29T01:21:10;4.45;;;1.65;;
65825;SDS011;52586;-43.152;172.732;2023-05-29T01:23:52;2.03;;;1.30;;
65825;SDS011;52586;-43.152;172.732;2023-05-29T01:26:43;4.13;;;1.52;;
65825;SDS011;52586;-43.152;172.732;2023-05-29T01:29:21;3.22;;;1.65;;
65825;SDS011;52586;-43.152;172.732;2023-05-29T01:31:55;2.67;;;1.40;;
65825;SDS011;52586;-43.152;172.732;2023-05-29T01:34:27;4.93;;;1.85;;
65825;SDS011;52586;-43.152;172.732;2023-05-29T01:36:58;4.10;;;1.75;;
65825;SDS011;52586;-43.152;172.732;2023-05-29T01:39:29;3.55;;;1.50;;
65825;SDS011;52586;-43.152;172.732;2023-05-29T01:42:03;2.20;;;1.55;;
65825;SDS011;52586;-43.152;172.732;2023-05-29T01:44:35;3.60;;;1.60;;
65825;SDS011;52586;-43.152;172.732;2023-05-29T01:47:06;2.65;;;1.60;;
65825;SDS011;52586;-43.152;172.732;2023-05-29T01:49:37;4.25;;;1.55;;
65825;SDS011;52586;-43.152;172.732;2023-05-29T01:52:10;4.38;;;1.60;;
65825;SDS011;52586;-43.152;172.732;2023-05-29T01:54:41;4.00;;;1.65;;
65825;SDS011;52586;-43.152;172.732;2023-05-29T01:57:14;2.92;;;1.60;;
65825;SDS011;52586;-43.152;172.732;2023-05-29T01:59:45;3.35;;;1.60;;
65825;SDS011;52586;-43.152;172.732;2023-05-29T02:02:17;2.75;;;1.73;;
65825;SDS011;52586;-43.152;172.732;2023-05-29T02:04:50;4.38;;;1.92;;
65825;SDS011;52586;-43.152;172.732;2023-05-29T02:07:20;2.78;;;1.73;;
65825;SDS011;52586;-43.152;172.732;2023-05-29T02:09:51;3.50;;;1.48;;
65825;SDS011;52586;-43.152;172.732;2023-05-29T02:12:23;3.42;;;1.40;;
65825;SDS011;52586;-43.152;172.732;2023-05-29T02:14:54;4.85;;;1.88;;
65825;SDS011;52586;-43.152;172.732;2023-05-29T02:17:25;2.08;;;1.20;;
65825;SDS011;52586;-43.152;172.732;2023-05-29T02:19:55;3.67;;;1.55;;
65825;SDS011;52586;-43.152;172.732;2023-05-29T02:22:26;3.75;;;1.60;;
65825;SDS011;52586;-43.152;172.732;2023-05-29T02:24:57;2.78;;;1.38;;
65825;SDS011;52586;-43.152;172.732;2023-05-29T02:27:29;4.13;;;1.73;;
65825;SDS011;52586;-43.152;172.732;2023-05-29T02:30:00;3.72;;;1.50;;
65825;SDS011;52586;-43.152;172.732;2023-05-29T02:32:31;2.95;;;1.50;;
65825;SDS011;52586;-43.152;172.732;2023-05-29T02:35:02;3.42;;;1.60;;
65825;SDS011;52586;-43.152;172.732;2023-05-29T02:37:33;2.42;;;1.38;;
65825;SDS011;52586;-43.152;172.732;2023-05-29T02:40:04;3.83;;;1.77;;
65825;SDS011;52586;-43.152;172.732;2023-05-29T02:42:38;4.43;;;1.55;;
65825;SDS011;52586;-43.152;172.732;2023-05-29T02:45:09;3.33;;;1.55;;
65825;SDS011;52586;-43.152;172.732;2023-05-29T02:47:40;3.03;;;1.50;;
65825;SDS011;52586;-43.152;172.732;2023-05-29T02:50:11;3.88;;;1.85;;
65825;SDS011;52586;-43.152;172.732;2023-05-29T02:52:41;2.97;;;1.30;;
65825;SDS011;52586;-43.152;172.732;2023-05-29T02:55:12;3.35;;;1.75;;
65825;SDS011;52586;-43.152;172.732;2023-05-29T02:57:44;2.88;;;1.60;;
65825;SDS011;52586;-43.152;172.732;2023-05-29T03:00:18;3.83;;;1.35;;
65825;SDS011;52586;-43.152;172.732;2023-05-29T03:02:49;4.40;;;1.70;;
65825;SDS011;52586;-43.152;172.732;2023-05-29T03:05:20;2.05;;;1.23;;
65825;SDS011;52586;-43.152;172.732;2023-05-29T03:07:50;3.00;;;1.83;;
65825;SDS011;52586;-43.152;172.732;2023-05-29T03:10:21;4.32;;;1.80;;
65825;SDS011;52586;-43.152;172.732;2023-05-29T03:12:53;3.72;;;1.67;;
65825;SDS011;52586;-43.152;172.732;2023-05-29T03:15:24;3.40;;;1.63;;
65825;SDS011;52586;-43.152;172.732;2023-05-29T03:17:54;4.05;;;1.70;;
65825;SDS011;52586;-43.152;172.732;2023-05-29T03:20:25;4.38;;;1.80;;
65825;SDS011;52586;-43.152;172.732;2023-05-29T03:22:56;4.60;;;1.73;;
65825;SDS011;52586;-43.152;172.732;2023-05-29T03:25:26;3.75;;;1.73;;
65825;SDS011;52586;-43.152;172.732;2023-05-29T03:27:59;3.65;;;1.92;;
65825;SDS011;52586;-43.152;172.732;2023-05-29T03:30:29;3.13;;;1.40;;
65825;SDS011;52586;-43.152;172.732;2023-05-29T03:33:00;3.05;;;1.60;;
65825;SDS011;52586;-43.152;172.732;2023-05-29T03:35:31;4.40;;;1.77;;
65825;SDS011;52586;-43.152;172.732;2023-05-29T03:38:01;4.50;;;1.60;;
65825;SDS011;52586;-43.152;172.732;2023-05-29T03:40:32;4.65;;;1.63;;
65825;SDS011;52586;-43.152;172.732;2023-05-29T03:43:04;4.78;;;1.48;;
65825;SDS011;52586;-43.152;172.732;2023-05-29T03:45:35;5.00;;;1.75;;
65825;SDS011;52586;-43.152;172.732;2023-05-29T03:48:05;4.60;;;1.67;;
65825;SDS011;52586;-43.152;172.732;2023-05-29T03:50:36;2.92;;;1.50;;
65825;SDS011;52586;-43.152;172.732;2023-05-29T03:53:06;4.65;;;1.55;;
65825;SDS011;52586;-43.152;172.732;2023-05-29T03:55:37;3.85;;;1.70;;
65825;SDS011;52586;-43.152;172.732;2023-05-29T03:58:09;3.45;;;1.80;;
65825;SDS011;52586;-43.152;172.732;2023-05-29T04:00:40;2.75;;;1.40;;
65825;SDS011;52586;-43.152;172.732;2023-05-29T04:03:11;3.60;;;1.75;;
65825;SDS011;52586;-43.152;172.732;2023-05-29T04:05:41;3.00;;;1.52;;
65825;SDS011;52586;-43.152;172.732;2023-05-29T04:08:12;2.63;;;1.40;;
65825;SDS011;52586;-43.152;172.732;2023-05-29T04:10:43;2.67;;;1.60;;
65825;SDS011;52586;-43.152;172.732;2023-05-29T04:13:15;3.63;;;1.40;;
65825;SDS011;52586;-43.152;172.732;2023-05-29T04:15:46;2.55;;;1.45;;
65825;SDS011;52586;-43.152;172.732;2023-05-29T04:18:18;3.58;;;1.67;;
65825;SDS011;52586;-43.152;172.732;2023-05-29T04:20:49;2.45;;;1.60;;
65825;SDS011;52586;-43.152;172.732;2023-05-29T04:23:20;2.35;;;1.20;;
65825;SDS011;52586;-43.152;172.732;2023-05-29T04:25:50;5.15;;;2.03;;
65825;SDS011;52586;-43.152;172.732;2023-05-29T04:28:23;3.30;;;1.67;;
65825;SDS011;52586;-43.152;172.732;2023-05-29T04:30:54;4.20;;;1.65;;
65825;SDS011;52586;-43.152;172.732;2023-05-29T04:33:25;3.53;;;1.63;;
65825;SDS011;52586;-43.152;172.732;2023-05-29T04:35:56;4.20;;;2.03;;
65825;SDS011;52586;-43.152;172.732;2023-05-29T04:38:27;4.60;;;1.77;;
65825;SDS011;52586;-43.152;172.732;2023-05-29T04:40:58;3.15;;;1.35;;
65825;SDS011;52586;-43.152;172.732;2023-05-29T04:43:30;4.63;;;1.67;;
65825;SDS011;52586;-43.152;172.732;2023-05-29T04:46:02;4.82;;;1.88;;
65825;SDS011;52586;-43.152;172.732;2023-05-29T04:48:33;5.68;;;2.00;;
65825;SDS011;52586;-43.152;172.732;2023-05-29T04:51:06;3.35;;;1.67;;
65825;SDS011;52586;-43.152;172.732;2023-05-29T04:53:38;3.22;;;1.63;;
65825;SDS011;52586;-43.152;172.732;2023-05-29T04:56:09;4.03;;;1.70;;
65825;SDS011;52586;-43.152;172.732;2023-05-29T04:58:42;4.82;;;2.47;;
65825;SDS011;52586;-43.152;172.732;2023-05-29T05:01:13;2.75;;;1.98;;
65825;SDS011;52586;-43.152;172.732;2023-05-29T05:03:43;5.18;;;2.80;;
65825;SDS011;52586;-43.152;172.732;2023-05-29T05:06:14;4.30;;;2.58;;
65825;SDS011;52586;-43.152;172.732;2023-05-29T05:08:44;4.20;;;2.47;;
65825;SDS011;52586;-43.152;172.732;2023-05-29T05:11:15;4.45;;;2.55;;
65825;SDS011;52586;-43.152;172.732;2023-05-29T05:13:48;13.60;;;7.20;;
65825;SDS011;52586;-43.152;172.732;2023-05-29T05:19:19;7.40;;;4.60;;
65825;SDS011;52586;-43.152;172.732;2023-05-29T05:21:49;8.90;;;4.65;;
65825;SDS011;52586;-43.152;172.732;2023-05-29T05:24:20;8.98;;;4.45;;
65825;SDS011;52586;-43.152;172.732;2023-05-29T05:26:51;8.57;;;4.57;;
65825;SDS011;52586;-43.152;172.732;2023-05-29T05:29:23;6.38;;;4.32;;
65825;SDS011;52586;-43.152;172.732;2023-05-29T05:31:54;10.93;;;5.07;;
65825;SDS011;52586;-43.152;172.732;2023-05-29T05:34:25;7.32;;;4.68;;
65825;SDS011;52586;-43.152;172.732;2023-05-29T05:36:55;6.70;;;4.57;;
65825;SDS011;52586;-43.152;172.732;2023-05-29T05:39:26;10.50;;;5.40;;
65825;SDS011;52586;-43.152;172.732;2023-05-29T05:41:57;10.38;;;5.03;;
65825;SDS011;52586;-43.152;172.732;2023-05-29T05:44:29;8.50;;;5.07;;
65825;SDS011;52586;-43.152;172.732;2023-05-29T05:47:00;8.65;;;4.57;;
65825;SDS011;52586;-43.152;172.732;2023-05-29T05:49:30;11.88;;;6.00;;
65825;SDS011;52586;-43.152;172.732;2023-05-29T05:52:01;8.43;;;5.22;;
65825;SDS011;52586;-43.152;172.732;2023-05-29T05:54:32;13.43;;;6.90;;
65825;SDS011;52586;-43.152;172.732;2023-05-29T05:57:02;10.52;;;5.85;;
65825;SDS011;52586;-43.152;172.732;2023-05-29T05:59:35;11.95;;;5.45;;
65825;SDS011;52586;-43.152;172.732;2023-05-29T06:02:06;8.27;;;5.30;;
65825;SDS011;52586;-43.152;172.732;2023-05-29T06:04:37;9.25;;;5.32;;
65825;SDS011;52586;-43.152;172.732;2023-05-29T06:07:07;8.77;;;5.75;;
65825;SDS011;52586;-43.152;172.732;2023-05-29T06:09:38;8.95;;;5.28;;
65825;SDS011;52586;-43.152;172.732;2023-05-29T06:12:09;8.93;;;5.82;;
65825;SDS011;52586;-43.152;172.732;2023-05-29T06:14:41;8.70;;;5.47;;
65825;SDS011;52586;-43.152;172.732;2023-05-29T06:17:12;10.50;;;5.50;;
65825;SDS011;52586;-43.152;172.732;2023-05-29T06:19:43;10.55;;;5.32;;
65825;SDS011;52586;-43.152;172.732;2023-05-29T06:22:14;7.55;;;5.18;;
65825;SDS011;52586;-43.152;172.732;2023-05-29T06:24:45;6.95;;;4.90;;
65825;SDS011;52586;-43.152;172.732;2023-05-29T06:27:16;7.80;;;5.40;;
65825;SDS011;52586;-43.152;172.732;2023-05-29T06:29:49;6.80;;;4.93;;
65825;SDS011;52586;-43.152;172.732;2023-05-29T06:32:20;7.07;;;5.40;;
65825;SDS011;52586;-43.152;172.732;2023-05-29T06:34:51;8.77;;;5.03;;
65825;SDS011;52586;-43.152;172.732;2023-05-29T06:37:21;7.88;;;4.78;;
65825;SDS011;52586;-43.152;172.732;2023-05-29T06:39:52;8.55;;;5.10;;
65825;SDS011;52586;-43.152;172.732;2023-05-29T06:42:23;8.70;;;4.82;;
65825;SDS011;52586;-43.152;172.732;2023-05-29T06:44:56;6.93;;;4.65;;
65825;SDS011;52586;-43.152;172.732;2023-05-29T06:47:26;7.45;;;4.68;;
65825;SDS011;52586;-43.152;172.732;2023-05-29T06:49:57;7.57;;;4.80;;
65825;SDS011;52586;-43.152;172.732;2023-05-29T06:52:28;7.20;;;4.93;;
65825;SDS011;52586;-43.152;172.732;2023-05-29T06:54:58;7.32;;;4.90;;
65825;SDS011;52586;-43.152;172.732;2023-05-29T06:57:29;8.05;;;4.63;;
65825;SDS011;52586;-43.152;172.732;2023-05-29T07:00:02;8.23;;;4.78;;
65825;SDS011;52586;-43.152;172.732;2023-05-29T07:02:35;8.93;;;4.82;;
65825;SDS011;52586;-43.152;172.732;2023-05-29T07:05:05;6.00;;;4.63;;
65825;SDS011;52586;-43.152;172.732;2023-05-29T07:07:36;7.85;;;4.93;;
65825;SDS011;52586;-43.152;172.732;2023-05-29T07:10:07;8.95;;;4.50;;
65825;SDS011;52586;-43.152;172.732;2023-05-29T07:12:38;7.32;;;4.88;;
65825;SDS011;52586;-43.152;172.732;2023-05-29T07:15:11;6.72;;;4.80;;
65825;SDS011;52586;-43.152;172.732;2023-05-29T07:17:41;6.22;;;4.40;;
65825;SDS011;52586;-43.152;172.732;2023-05-29T07:20:12;5.70;;;4.32;;
65825;SDS011;52586;-43.152;172.732;2023-05-29T07:22:45;6.03;;;3.88;;
65825;SDS011;52586;-43.152;172.732;2023-05-29T07:25:15;7.70;;;4.68;;
65825;SDS011;52586;-43.152;172.732;2023-05-29T07:27:46;8.35;;;4.60;;
65825;SDS011;52586;-43.152;172.732;2023-05-29T07:30:19;7.75;;;4.65;;
65825;SDS011;52586;-43.152;172.732;2023-05-29T07:32:49;7.00;;;4.10;;
65825;SDS011;52586;-43.152;172.732;2023-05-29T07:35:20;6.18;;;4.20;;
65825;SDS011;52586;-43.152;172.732;2023-05-29T07:37:51;6.88;;;4.28;;
65825;SDS011;52586;-43.152;172.732;2023-05-29T07:40:21;5.97;;;4.35;;
65825;SDS011;52586;-43.152;172.732;2023-05-29T07:42:52;7.72;;;5.13;;
65825;SDS011;52586;-43.152;172.732;2023-05-29T07:45:24;9.98;;;5.53;;
65825;SDS011;52586;-43.152;172.732;2023-05-29T07:47:55;7.20;;;4.30;;
65825;SDS011;52586;-43.152;172.732;2023-05-29T07:50:26;7.60;;;4.75;;
65825;SDS011;52586;-43.152;172.732;2023-05-29T07:52:57;7.25;;;4.40;;
65825;SDS011;52586;-43.152;172.732;2023-05-29T07:55:28;6.60;;;4.18;;
65825;SDS011;52586;-43.152;172.732;2023-05-29T07:57:58;6.57;;;4.10;;
65825;SDS011;52586;-43.152;172.732;2023-05-29T08:00:31;6.78;;;4.45;;
65825;SDS011;52586;-43.152;172.732;2023-05-29T08:03:02;6.72;;;4.43;;
65825;SDS011;52586;-43.152;172.732;2023-05-29T08:05:33;6.25;;;4.55;;
65825;SDS011;52586;-43.152;172.732;2023-05-29T08:08:03;6.05;;;4.28;;
65825;SDS011;52586;-43.152;172.732;2023-05-29T08:10:34;7.63;;;4.43;;
65825;SDS011;52586;-43.152;172.732;2023-05-29T08:13:05;6.57;;;4.20;;
65825;SDS011;52586;-43.152;172.732;2023-05-29T08:15:38;6.72;;;4.13;;
65825;SDS011;52586;-43.152;172.732;2023-05-29T08:18:08;6.82;;;4.38;;
65825;SDS011;52586;-43.152;172.732;2023-05-29T08:20:39;6.43;;;4.20;;
65825;SDS011;52586;-43.152;172.732;2023-05-29T08:23:10;5.18;;;3.90;;
65825;SDS011;52586;-43.152;172.732;2023-05-29T08:25:42;5.93;;;4.20;;
65825;SDS011;52586;-43.152;172.732;2023-05-29T08:28:14;4.43;;;3.70;;
65825;SDS011;52586;-43.152;172.732;2023-05-29T08:30:47;6.20;;;3.80;;
65825;SDS011;52586;-43.152;172.732;2023-05-29T08:33:18;6.53;;;4.30;;
65825;SDS011;52586;-43.152;172.732;2023-05-29T08:35:48;6.00;;;3.75;;
65825;SDS011;52586;-43.152;172.732;2023-05-29T08:38:19;7.13;;;4.13;;
65825;SDS011;52586;-43.152;172.732;2023-05-29T08:40:51;4.38;;;3.60;;
65825;SDS011;52586;-43.152;172.732;2023-05-29T08:43:23;5.38;;;3.85;;
65825;SDS011;52586;-43.152;172.732;2023-05-29T08:45:59;4.72;;;3.90;;
65825;SDS011;52586;-43.152;172.732;2023-05-29T08:48:30;7.00;;;3.80;;
65825;SDS011;52586;-43.152;172.732;2023-05-29T08:51:02;5.97;;;3.92;;
65825;SDS011;52586;-43.152;172.732;2023-05-29T08:53:33;5.82;;;3.83;;
65825;SDS011;52586;-43.152;172.732;2023-05-29T08:56:04;4.95;;;3.55;;
65825;SDS011;52586;-43.152;172.732;2023-05-29T08:58:36;5.55;;;3.60;;
65825;SDS011;52586;-43.152;172.732;2023-05-29T09:01:09;6.05;;;3.85;;
65825;SDS011;52586;-43.152;172.732;2023-05-29T09:03:40;4.38;;;3.60;;
65825;SDS011;52586;-43.152;172.732;2023-05-29T09:06:10;4.50;;;4.00;;
65825;SDS011;52586;-43.152;172.732;2023-05-29T09:08:41;5.88;;;3.83;;
65825;SDS011;52586;-43.152;172.732;2023-05-29T09:11:12;6.15;;;4.03;;
65825;SDS011;52586;-43.152;172.732;2023-05-29T09:13:43;5.05;;;4.20;;
65825;SDS011;52586;-43.152;172.732;2023-05-29T09:16:17;5.32;;;3.83;;
65825;SDS011;52586;-43.152;172.732;2023-05-29T09:18:48;4.70;;;3.60;;
65825;SDS011;52586;-43.152;172.732;2023-05-29T09:21:25;4.85;;;3.25;;
65825;SDS011;52586;-43.152;172.732;2023-05-29T09:24:03;5.10;;;3.97;;
65825;SDS011;52586;-43.152;172.732;2023-05-29T09:26:34;5.38;;;3.88;;
65825;SDS011;52586;-43.152;172.732;2023-05-29T09:29:05;3.63;;;3.20;;
65825;SDS011;52586;-43.152;172.732;2023-05-29T09:31:41;4.93;;;3.95;;
65825;SDS011;52586;-43.152;172.732;2023-05-29T09:34:16;6.95;;;3.50;;
65825;SDS011;52586;-43.152;172.732;2023-05-29T09:36:46;4.40;;;4.00;;
65825;SDS011;52586;-43.152;172.732;2023-05-29T09:39:17;3.92;;;3.20;;
65825;SDS011;52586;-43.152;172.732;2023-05-29T09:41:48;4.88;;;3.40;;
65825;SDS011;52586;-43.152;172.732;2023-05-29T09:44:22;4.15;;;3.22;;
65825;SDS011;52586;-43.152;172.732;2023-05-29T09:46:59;5.97;;;3.40;;
65825;SDS011;52586;-43.152;172.732;2023-05-29T09:49:30;4.82;;;3.33;;
65825;SDS011;52586;-43.152;172.732;2023-05-29T09:52:04;3.95;;;3.40;;
65825;SDS011;52586;-43.152;172.732;2023-05-29T09:54:35;3.50;;;3.08;;
65825;SDS011;52586;-43.152;172.732;2023-05-29T09:57:06;4.70;;;3.30;;
65825;SDS011;52586;-43.152;172.732;2023-05-29T09:59:38;4.13;;;3.20;;
65825;SDS011;52586;-43.152;172.732;2023-05-29T10:02:16;3.85;;;3.13;;
65825;SDS011;52586;-43.152;172.732;2023-05-29T10:04:48;3.92;;;3.25;;
65825;SDS011;52586;-43.152;172.732;2023-05-29T10:07:22;3.45;;;3.15;;
65825;SDS011;52586;-43.152;172.732;2023-05-29T10:09:59;4.38;;;3.20;;
65825;SDS011;52586;-43.152;172.732;2023-05-29T10:12:31;3.55;;;2.85;;
65825;SDS011;52586;-43.152;172.732;2023-05-29T10:15:05;3.20;;;2.90;;
65825;SDS011;52586;-43.152;172.732;2023-05-29T10:17:43;5.25;;;3.08;;
65825;SDS011;52586;-43.152;172.732;2023-05-29T10:20:20;4.20;;;3.42;;
65825;SDS011;52586;-43.152;172.732;2023-05-29T10:22:51;4.20;;;3.10;;
65825;SDS011;52586;-43.152;172.732;2023-05-29T10:25:25;3.70;;;2.78;;
65825;SDS011;52586;-43.152;172.732;2023-05-29T10:27:58;3.33;;;2.70;;
65825;SDS011;52586;-43.152;172.732;2023-05-29T10:30:32;4.78;;;3.00;;
65825;SDS011;52586;-43.152;172.732;2023-05-29T10:33:15;4.05;;;3.60;;
65825;SDS011;52586;-43.152;172.732;2023-05-29T10:36:01;3.72;;;2.70;;
65825;SDS011;52586;-43.152;172.732;2023-05-29T10:38:40;2.92;;;2.63;;
65825;SDS011;52586;-43.152;172.732;2023-05-29T10:41:29;4.93;;;3.40;;
65825;SDS011;52586;-43.152;172.732;2023-05-29T10:47:09;3.65;;;2.92;;
65825;SDS011;52586;-43.152;172.732;2023-05-29T10:49:50;3.40;;;2.92;;
65825;SDS011;52586;-43.152;172.732;2023-05-29T10:52:30;3.22;;;2.83;;
65825;SDS011;52586;-43.152;172.732;2023-05-29T10:55:02;3.17;;;2.85;;
65825;SDS011;52586;-43.152;172.732;2023-05-29T10:57:33;3.47;;;2.75;;
65825;SDS011;52586;-43.152;172.732;2023-05-29T11:00:04;3.63;;;2.97;;
65825;SDS011;52586;-43.152;172.732;2023-05-29T11:02:39;3.35;;;2.63;;
65825;SDS011;52586;-43.152;172.732;2023-05-29T11:05:22;3.83;;;3.17;;
65825;SDS011;52586;-43.152;172.732;2023-05-29T11:07:56;4.35;;;2.90;;
65825;SDS011;52586;-43.152;172.732;2023-05-29T11:13:26;3.25;;;2.60;;
65825;SDS011;52586;-43.152;172.732;2023-05-29T11:16:10;3.70;;;2.80;;
65825;SDS011;52586;-43.152;172.732;2023-05-29T11:18:42;2.72;;;2.53;;
65825;SDS011;52586;-43.152;172.732;2023-05-29T11:21:21;3.13;;;2.80;;
65825;SDS011;52586;-43.152;172.732;2023-05-29T11:23:58;2.85;;;2.45;;
65825;SDS011;52586;-43.152;172.732;2023-05-29T11:26:31;2.75;;;2.45;;
65825;SDS011;52586;-43.152;172.732;2023-05-29T11:29:03;3.63;;;2.63;;
65825;SDS011;52586;-43.152;172.732;2023-05-29T11:31:37;3.22;;;2.75;;
65825;SDS011;52586;-43.152;172.732;2023-05-29T11:34:11;3.20;;;2.70;;
65825;SDS011;52586;-43.152;172.732;2023-05-29T11:36:46;3.90;;;2.30;;
65825;SDS011;52586;-43.152;172.732;2023-05-29T11:39:17;2.88;;;2.58;;
65825;SDS011;52586;-43.152;172.732;2023-05-29T11:41:50;3.30;;;2.65;;
65825;SDS011;52586;-43.152;172.732;2023-05-29T11:44:21;3.33;;;2.50;;
65825;SDS011;52586;-43.152;172.732;2023-05-29T11:47:00;2.92;;;2.58;;
65825;SDS011;52586;-43.152;172.732;2023-05-29T11:49:31;3.42;;;2.47;;
65825;SDS011;52586;-43.152;172.732;2023-05-29T11:52:08;3.67;;;2.88;;
65825;SDS011;52586;-43.152;172.732;2023-05-29T11:54:40;2.80;;;2.42;;
65825;SDS011;52586;-43.152;172.732;2023-05-29T11:57:17;3.15;;;2.50;;
65825;SDS011;52586;-43.152;172.732;2023-05-29T11:59:48;3.17;;;2.63;;
65825;SDS011;52586;-43.152;172.732;2023-05-29T12:02:24;3.03;;;2.40;;
65825;SDS011;52586;-43.152;172.732;2023-05-29T12:05:02;2.92;;;2.67;;
65825;SDS011;52586;-43.152;172.732;2023-05-29T12:07:35;2.97;;;2.55;;
65825;SDS011;52586;-43.152;172.732;2023-05-29T12:10:09;2.38;;;2.17;;
65825;SDS011;52586;-43.152;172.732;2023-05-29T12:12:41;2.90;;;2.35;;
65825;SDS011;52586;-43.152;172.732;2023-05-29T12:15:15;2.58;;;2.30;;
65825;SDS011;52586;-43.152;172.732;2023-05-29T12:17:46;2.47;;;2.28;;
65825;SDS011;52586;-43.152;172.732;2023-05-29T12:20:18;3.88;;;2.50;;
65825;SDS011;52586;-43.152;172.732;2023-05-29T12:22:52;2.55;;;2.25;;
65825;SDS011;52586;-43.152;172.732;2023-05-29T12:25:28;2.42;;;2.17;;
65825;SDS011;52586;-43.152;172.732;2023-05-29T12:27:58;3.10;;;2.28;;
65825;SDS011;52586;-43.152;172.732;2023-05-29T12:30:29;2.80;;;2.50;;
65825;SDS011;52586;-43.152;172.732;2023-05-29T12:33:00;2.90;;;2.60;;
65825;SDS011;52586;-43.152;172.732;2023-05-29T12:35:32;2.53;;;2.10;;
65825;SDS011;52586;-43.152;172.732;2023-05-29T12:38:04;3.00;;;2.40;;
65825;SDS011;52586;-43.152;172.732;2023-05-29T12:40:36;2.40;;;1.98;;
65825;SDS011;52586;-43.152;172.732;2023-05-29T12:43:07;2.60;;;2.00;;
65825;SDS011;52586;-43.152;172.732;2023-05-29T12:45:37;3.05;;;2.40;;
65825;SDS011;52586;-43.152;172.732;2023-05-29T12:48:08;2.58;;;2.28;;
65825;SDS011;52586;-43.152;172.732;2023-05-29T12:50:39;2.42;;;2.22;;
65825;SDS011;52586;-43.152;172.732;2023-05-29T12:53:12;2.42;;;2.22;;
65825;SDS011;52586;-43.152;172.732;2023-05-29T12:55:44;2.53;;;2.10;;
65825;SDS011;52586;-43.152;172.732;2023-05-29T12:58:15;2.50;;;2.20;;
65825;SDS011;52586;-43.152;172.732;2023-05-29T13:00:46;2.75;;;2.15;;
65825;SDS011;52586;-43.152;172.732;2023-05-29T13:03:21;2.50;;;2.20;;
65825;SDS011;52586;-43.152;172.732;2023-05-29T13:05:52;2.45;;;2.25;;
65825;SDS011;52586;-43.152;172.732;2023-05-29T13:08:25;2.17;;;1.98;;
65825;SDS011;52586;-43.152;172.732;2023-05-29T13:10:55;2.72;;;2.30;;
65825;SDS011;52586;-43.152;172.732;2023-05-29T13:13:27;1.95;;;1.75;;
65825;SDS011;52586;-43.152;172.732;2023-05-29T13:15:57;2.85;;;2.00;;
65825;SDS011;52586;-43.152;172.732;2023-05-29T13:18:28;2.15;;;1.70;;
65825;SDS011;52586;-43.152;172.732;2023-05-29T13:20:59;3.30;;;2.20;;
65825;SDS011;52586;-43.152;172.732;2023-05-29T13:23:32;2.40;;;1.98;;
65825;SDS011;52586;-43.152;172.732;2023-05-29T13:26:03;2.35;;;2.08;;
65825;SDS011;52586;-43.152;172.732;2023-05-29T13:28:33;2.55;;;2.03;;
65825;SDS011;52586;-43.152;172.732;2023-05-29T13:31:04;2.13;;;1.88;;
65825;SDS011;52586;-43.152;172.732;2023-05-29T13:33:35;2.38;;;2.10;;
65825;SDS011;52586;-43.152;172.732;2023-05-29T13:36:06;2.33;;;2.13;;
65825;SDS011;52586;-43.152;172.732;2023-05-29T13:38:38;2.20;;;2.00;;
65825;SDS011;52586;-43.152;172.732;2023-05-29T13:41:10;2.10;;;1.90;;
65825;SDS011;52586;-43.152;172.732;2023-05-29T13:43:40;2.20;;;2.00;;
65825;SDS011;52586;-43.152;172.732;2023-05-29T13:46:11;1.80;;;1.70;;
65825;SDS011;52586;-43.152;172.732;2023-05-29T13:48:42;2.63;;;2.17;;
65825;SDS011;52586;-43.152;172.732;2023-05-29T13:51:12;2.22;;;1.73;;
65825;SDS011;52586;-43.152;172.732;2023-05-29T13:53:45;2.17;;;1.75;;
65825;SDS011;52586;-43.152;172.732;2023-05-29T13:56:15;1.88;;;1.65;;
65825;SDS011;52586;-43.152;172.732;2023-05-29T13:58:46;2.97;;;1.85;;
65825;SDS011;52586;-43.152;172.732;2023-05-29T14:01:17;1.48;;;1.38;;
65825;SDS011;52586;-43.152;172.732;2023-05-29T14:03:48;2.22;;;1.60;;
65825;SDS011;52586;-43.152;172.732;2023-05-29T14:06:18;2.15;;;1.95;;
65825;SDS011;52586;-43.152;172.732;2023-05-29T14:08:51;2.08;;;1.88;;
65825;SDS011;52586;-43.152;172.732;2023-05-29T14:11:22;1.95;;;1.63;;
65825;SDS011;52586;-43.152;172.732;2023-05-29T14:13:53;2.10;;;1.77;;
65825;SDS011;52586;-43.152;172.732;2023-05-29T14:16:23;1.73;;;1.50;;
65825;SDS011;52586;-43.152;172.732;2023-05-29T14:18:54;2.00;;;1.80;;
65825;SDS011;52586;-43.152;172.732;2023-05-29T14:21:24;1.77;;;1.55;;
65825;SDS011;52586;-43.152;172.732;2023-05-29T14:23:57;2.00;;;1.90;;
65825;SDS011;52586;-43.152;172.732;2023-05-29T14:26:27;1.60;;;1.50;;
65825;SDS011;52586;-43.152;172.732;2023-05-29T14:28:58;1.67;;;1.58;;
65825;SDS011;52586;-43.152;172.732;2023-05-29T14:31:29;1.70;;;1.60;;
65825;SDS011;52586;-43.152;172.732;2023-05-29T14:33:59;1.92;;;1.50;;
65825;SDS011;52586;-43.152;172.732;2023-05-29T14:36:30;1.85;;;1.73;;
65825;SDS011;52586;-43.152;172.732;2023-05-29T14:39:03;2.38;;;1.55;;
65825;SDS011;52586;-43.152;172.732;2023-05-29T14:41:34;1.98;;;1.77;;
65825;SDS011;52586;-43.152;172.732;2023-05-29T14:44:04;1.98;;;1.77;;